Time;durP1;ratioP1;P1;durP2;ratioP2;P2;SDS_P1;SDS_P2;PMS_P1;PMS_P2;Temp;Humidity;BMP_temperature;BMP_pressure;BME280_temperature;BME280_humidity;BME280_pressure;Samples;Min_cycle;Max_cycle;Signal;HPM_P1;HPM_P2
2022/08/10 00:01:22;;;;;;;;;;;;;;;17.51;61.20;101525.31;5092982;28;19927;-68
2022/08/10 00:04:25;;;;;;;;;;;;;;;17.35;62.03;101525.44;5111222;28;19960;-69
2022/08/10 00:07:28;;;;;;;;;;;;;;;17.44;62.13;101528.34;5112974;28;19919;-68
2022/08/10 00:10:31;;;;;;;;;;;;;;;17.44;62.14;101523.06;5113547;28;19976;-68
2022/08/10 00:13:35;;;;;;;;;;;;;;;17.49;61.76;101528.06;5113176;28;19956;-69
2022/08/10 00:16:38;;;;;;;;;;;;;;;17.48;61.80;101530.78;5112119;28;19969;-68
2022/08/10 00:19:41;;;;;;;;;;;;;;;17.38;61.92;101528.75;5112863;28;19918;-68
2022/08/10 00:22:44;;;;;;;;;;;;;;;17.36;62.24;101527.16;5112676;28;20008;-69
2022/08/10 00:25:47;;;;;;;;;;;;;;;17.25;62.32;101533.13;5113064;28;19963;-68
2022/08/10 00:28:51;;;;;;;;;;;;;;;17.22;62.38;101525.41;5112727;28;20467;-68
2022/08/10 00:31:54;;;;;;;;;;;;;;;17.16;62.50;101520.50;5111896;28;20040;-68
2022/08/10 00:34:57;;;;;;;;;;;;;;;17.05;63.27;101525.66;5112561;28;19956;-68
2022/08/10 00:38:00;;;;;;;;;;;;;;;17.12;63.14;101517.22;5111902;28;20358;-69
2022/08/10 00:41:03;;;;;;;;;;;;;;;16.92;62.93;101522.94;5112475;28;19918;-69
2022/08/10 00:44:06;;;;;;;;;;;;;;;16.72;63.75;101522.34;5112741;28;20335;-68
2022/08/10 00:47:10;;;;;;;;;;;;;;;16.77;64.15;101516.81;5111799;28;20501;-67
2022/08/10 00:50:16;;;;;;;;;;;;;;;16.77;63.66;101513.31;5112233;28;19922;-68
2022/08/10 00:53:22;;;;;;;;;;;;;;;16.81;63.53;101514.81;5112058;28;19993;-68
2022/08/10 00:56:28;;;;;;;;;;;;;;;16.86;63.79;101518.88;5111977;28;19957;-68
2022/08/10 00:59:34;;;;;;;;;;;;;;;16.73;64.34;101520.56;5111213;28;20384;-68
2022/08/10 01:02:39;;;;;;;;;;;;;;;16.77;64.40;101522.09;5111919;28;19999;-69
2022/08/10 01:06:00;;;;;;;;;;;;;;;16.58;64.75;101516.22;5111128;28;19987;-68
2022/08/10 01:09:12;;;;;;;;;;;;;;;16.45;65.00;101527.53;5111515;28;19967;-68
2022/08/10 01:12:24;;;;;;;;;;;;;;;16.47;65.08;101517.72;5111308;28;20144;-68
2022/08/10 01:24:18;;;;;;;;;;;;;;;16.27;65.90;101507.53;5095133;28;19968;-68
2022/08/10 01:27:37;;;;;;;;;;;;;;;16.34;65.77;101511.50;5111978;28;20497;-68
2022/08/10 01:30:41;;;;;;;;;;;;;;;16.30;65.75;101502.06;5111829;28;20011;-68
2022/08/10 01:33:48;;;;;;;;;;;;;;;16.32;65.74;101513.38;5111115;28;20296;-68
2022/08/10 01:36:57;;;;;;;;;;;;;;;16.20;66.18;101507.03;5111256;28;19970;-68
2022/08/10 01:40:03;;;;;;;;;;;;;;;16.30;66.05;101507.34;5090598;28;19964;-68
2022/08/10 01:43:08;;;;;;;;;;;;;;;16.09;66.78;101513.94;5090628;28;19961;-68
2022/08/10 01:46:18;;;;;;;;;;;;;;;16.10;66.57;101505.91;5090707;28;20468;-68
2022/08/10 01:49:22;;;;;;;;;;;;;;;15.88;67.37;101516.88;5090238;28;19915;-68
2022/08/10 01:52:26;;;;;;;;;;;;;;;16.02;66.76;101516.94;5096747;28;19983;-69
2022/08/10 01:55:30;;;;;;;;;;;;;;;16.17;66.64;101527.50;5112106;28;20341;-68
2022/08/10 01:58:37;;;;;;;;;;;;;;;16.03;66.95;101518.63;5110792;28;19927;-67
2022/08/10 02:01:42;;;;;;;;;;;;;;;16.08;66.69;101518.34;4737191;28;10000976;-68
2022/08/10 02:04:48;;;;;;;;;;;;;;;15.96;67.12;101517.28;5075897;28;19919;-68
2022/08/10 02:07:51;;;;;;;;;;;;;;;15.99;67.00;101517.09;5087509;28;20027;-68
2022/08/10 02:10:56;;;;;;;;;;;;;;;15.89;67.12;101518.59;5087769;28;19954;-68
2022/08/10 02:13:59;;;;;;;;;;;;;;;15.82;67.55;101522.50;5088004;28;19922;-68
2022/08/10 02:17:05;;;;;;;;;;;;;;;15.66;68.33;101525.16;5087815;28;20416;-68
2022/08/10 02:20:09;;;;;;;;;;;;;;;15.62;68.36;101530.69;5087516;28;19922;-68
2022/08/10 02:23:33;;;;;;;;;;;;;;;15.66;67.99;101526.94;5086671;28;19964;-68
2022/08/10 02:27:01;;;;;;;;;;;;;;;15.52;68.22;101531.22;5087615;28;19973;-68
2022/08/10 02:30:05;;;;;;;;;;;;;;;15.48;68.68;101532.34;5087604;28;20022;-68
2022/08/10 02:33:09;;;;;;;;;;;;;;;15.61;68.78;101539.56;5093665;28;19945;-68
2022/08/10 02:36:14;;;;;;;;;;;;;;;15.52;68.73;101539.13;5107402;28;19993;-69
2022/08/10 02:39:19;;;;;;;;;;;;;;;15.59;68.69;101537.84;5108073;28;19972;-68
2022/08/10 02:42:32;;;;;;;;;;;;;;;15.43;69.43;101539.66;5107374;28;19969;-69
2022/08/10 02:45:44;;;;;;;;;;;;;;;15.35;69.53;101545.38;5107487;28;19918;-68
2022/08/10 02:48:56;;;;;;;;;;;;;;;15.28;69.27;101544.00;5107647;28;19973;-68
2022/08/10 02:52:32;;;;;;;;;;;;;;;15.26;69.53;101545.03;5074837;28;20029;-68
2022/08/10 02:55:44;;;;;;;;;;;;;;;15.25;69.78;101545.94;5069242;28;19927;-69
2022/08/10 02:58:51;;;;;;;;;;;;;;;15.27;69.70;101538.81;5087155;28;20415;-68
2022/08/10 03:01:58;;;;;;;;;;;;;;;15.22;70.14;101549.63;5087244;28;20581;-68
2022/08/10 03:05:08;;;;;;;;;;;;;;;15.51;68.84;101540.06;5089511;28;19919;-68
2022/08/10 03:08:14;;;;;;;;;;;;;;;15.31;69.61;101545.59;5107718;28;20560;-68
2022/08/10 03:11:26;;;;;;;;;;;;;;;15.15;69.92;101544.75;5106706;28;19959;-68
2022/08/10 03:14:30;;;;;;;;;;;;;;;14.95;70.69;101553.75;5107556;28;19919;-67
2022/08/10 03:17:35;;;;;;;;;;;;;;;14.99;70.81;101545.59;5106658;28;19968;-68
2022/08/10 03:20:39;;;;;;;;;;;;;;;15.02;70.81;101548.06;5106907;28;19961;-68
2022/08/10 03:23:43;;;;;;;;;;;;;;;14.96;71.17;101540.50;5106845;28;20434;-69
2022/08/10 03:26:47;;;;;;;;;;;;;;;14.96;70.93;101543.13;5094255;28;19930;-69
2022/08/10 03:29:50;;;;;;;;;;;;;;;14.77;71.49;101551.19;5107480;28;19965;-68
2022/08/10 03:32:54;;;;;;;;;;;;;;;14.72;71.77;101547.94;5107100;28;20387;-68
2022/08/10 03:35:58;;;;;;;;;;;;;;;14.67;71.80;101551.75;5106769;28;19919;-68
2022/08/10 03:39:01;;;;;;;;;;;;;;;14.84;71.60;101543.81;5106361;28;19972;-68
2022/08/10 03:42:07;;;;;;;;;;;;;;;14.90;70.96;101540.84;5106524;28;19979;-68
2022/08/10 03:45:11;;;;;;;;;;;;;;;14.76;71.64;101541.56;5106333;28;19922;-68
2022/08/10 03:48:17;;;;;;;;;;;;;;;14.76;71.22;101546.00;5106170;28;19935;-69
2022/08/10 03:51:21;;;;;;;;;;;;;;;14.64;71.75;101551.00;5102633;28;19918;-68
2022/08/10 03:54:24;;;;;;;;;;;;;;;14.63;71.71;101546.66;5106873;28;19919;-68
2022/08/10 03:57:29;;;;;;;;;;;;;;;14.64;71.91;101544.84;4735516;28;10000150;-69
2022/08/10 04:00:35;;;;;;;;;;;;;;;14.60;72.13;101546.81;5102416;28;19984;-68
2022/08/10 04:03:43;;;;;;;;;;;;;;;14.47;72.75;101545.72;5105888;28;20389;-69
2022/08/10 04:06:46;;;;;;;;;;;;;;;14.38;73.24;101546.19;5096104;28;20327;-68
2022/08/10 04:09:50;;;;;;;;;;;;;;;14.40;73.24;101541.72;5109150;28;19930;-69
2022/08/10 04:12:53;;;;;;;;;;;;;;;14.60;72.23;101546.81;5108745;28;19919;-69
2022/08/10 04:15:57;;;;;;;;;;;;;;;14.67;71.97;101549.13;5108639;28;19918;-68
2022/08/10 04:19:00;;;;;;;;;;;;;;;14.74;71.57;101546.09;5109430;28;19937;-68
2022/08/10 04:22:07;;;;;;;;;;;;;;;14.73;71.28;101551.44;5108206;28;20328;-68
2022/08/10 04:25:11;;;;;;;;;;;;;;;14.58;71.89;101556.59;5108630;28;20014;-68
2022/08/10 04:28:15;;;;;;;;;;;;;;;14.39;72.53;101559.28;5103463;28;19918;-68
2022/08/10 04:31:19;;;;;;;;;;;;;;;14.57;72.26;101561.91;5108530;28;19923;-68
2022/08/10 04:34:24;;;;;;;;;;;;;;;14.41;72.99;101561.81;5108881;28;20371;-68
2022/08/10 04:37:28;;;;;;;;;;;;;;;14.35;73.25;101568.25;5108807;28;19968;-68
2022/08/10 04:40:31;;;;;;;;;;;;;;;14.42;72.87;101568.78;5108702;28;19961;-69
2022/08/10 04:43:35;;;;;;;;;;;;;;;14.40;72.89;101565.41;5108115;28;20444;-68
2022/08/10 04:46:37;;;;;;;;;;;;;;;14.26;73.53;101565.25;5108981;28;19984;-69
2022/08/10 04:49:40;;;;;;;;;;;;;;;14.31;73.20;101557.97;5110259;28;19937;-69
2022/08/10 04:52:44;;;;;;;;;;;;;;;14.69;72.08;101565.69;5078888;28;19965;-68
2022/08/10 04:55:47;;;;;;;;;;;;;;;14.46;72.65;101567.72;5092013;28;20272;-69
2022/08/10 04:58:50;;;;;;;;;;;;;;;14.55;72.50;101567.28;5091397;28;20598;-69
2022/08/10 05:01:53;;;;;;;;;;;;;;;14.79;72.11;101566.91;5092123;28;20285;-69
2022/08/10 05:04:56;;;;;;;;;;;;;;;14.54;72.80;101562.91;5111741;28;19926;-69
2022/08/10 05:08:00;;;;;;;;;;;;;;;14.55;72.78;101559.38;5111719;28;20299;-68
2022/08/10 05:11:03;;;;;;;;;;;;;;;14.68;72.71;101567.47;5112296;28;19919;-68
2022/08/10 05:14:06;;;;;;;;;;;;;;;14.80;71.97;101569.44;5111757;28;19961;-68
2022/08/10 05:17:10;;;;;;;;;;;;;;;14.72;72.42;101570.78;5111737;28;20016;-68
2022/08/10 05:20:13;;;;;;;;;;;;;;;14.69;73.11;101576.22;5111136;28;19962;-68
2022/08/10 05:23:17;;;;;;;;;;;;;;;14.72;73.26;101566.38;5111491;28;19937;-69
2022/08/10 05:26:19;;;;;;;;;;;;;;;14.96;72.72;101569.47;5110729;28;19939;-68
2022/08/10 05:29:22;;;;;;;;;;;;;;;15.26;71.34;101571.38;5112439;28;19965;-68
2022/08/10 05:32:26;;;;;;;;;;;;;;;15.25;69.43;101567.03;5110395;28;19922;-68
2022/08/10 05:35:29;;;;;;;;;;;;;;;15.17;69.38;101561.34;5111472;28;19918;-68
2022/08/10 05:38:33;;;;;;;;;;;;;;;15.13;71.03;101571.19;5109987;28;19926;-69
2022/08/10 05:41:37;;;;;;;;;;;;;;;15.13;71.17;101557.19;5110265;28;20257;-68
2022/08/10 05:44:40;;;;;;;;;;;;;;;15.34;70.50;101562.09;5111007;28;19968;-68
2022/08/10 05:47:44;;;;;;;;;;;;;;;15.50;68.92;101564.72;5111470;28;19965;-62
2022/08/10 05:50:47;;;;;;;;;;;;;;;15.70;68.08;101562.78;5108860;28;20005;-62
2022/08/10 05:53:51;;;;;;;;;;;;;;;15.91;66.64;101558.06;5109481;28;19918;-63
2022/08/10 05:56:55;;;;;;;;;;;;;;;16.05;65.82;101563.38;5108842;28;19922;-63
2022/08/10 06:00:01;;;;;;;;;;;;;;;16.23;65.57;101569.34;5109516;28;19919;-63
2022/08/10 06:03:06;;;;;;;;;;;;;;;15.96;66.87;101562.13;5108916;28;19965;-63
2022/08/10 06:06:11;;;;;;;;;;;;;;;16.06;68.18;101566.88;5110009;28;19918;-63
2022/08/10 06:09:15;;;;;;;;;;;;;;;16.10;68.76;101558.66;5108512;28;19964;-63
2022/08/10 06:12:20;;;;;;;;;;;;;;;16.34;67.01;101564.28;5109896;28;20016;-63
2022/08/10 06:15:24;;;;;;;;;;;;;;;16.41;66.64;101562.13;5108500;28;19930;-63
2022/08/10 06:18:31;;;;;;;;;;;;;;;16.66;65.66;101567.63;5108530;28;19922;-63
2022/08/10 06:21:35;;;;;;;;;;;;;;;16.63;65.85;101564.31;5108601;28;19918;-63
2022/08/10 06:24:39;;;;;;;;;;;;;;;16.70;65.28;101552.44;5108455;28;19918;-63
2022/08/10 06:27:46;;;;;;;;;;;;;;;16.84;65.18;101565.66;5096087;28;19981;-63
2022/08/10 06:30:51;;;;;;;;;;;;;;;16.95;65.23;101557.91;5087196;28;19962;-63
2022/08/10 06:33:55;;;;;;;;;;;;;;;17.04;65.51;101563.56;5097660;28;20339;-61
2022/08/10 06:37:01;;;;;;;;;;;;;;;17.23;64.85;101561.47;5112468;27;19926;-61
2022/08/10 06:40:04;;;;;;;;;;;;;;;17.39;63.49;101558.69;5107944;28;19919;-63
2022/08/10 06:43:09;;;;;;;;;;;;;;;17.48;64.59;101568.66;5103468;28;19939;-63
2022/08/10 06:46:15;;;;;;;;;;;;;;;17.56;64.03;101562.88;5109092;28;19922;-62
2022/08/10 06:49:21;;;;;;;;;;;;;;;17.70;63.64;101564.63;5115329;27;19922;-64
2022/08/10 06:52:26;;;;;;;;;;;;;;;17.82;63.46;101564.69;5109750;28;19934;-63
2022/08/10 06:55:30;;;;;;;;;;;;;;;17.92;63.43;101558.78;5109698;28;19961;-64
2022/08/10 06:58:35;;;;;;;;;;;;;;;18.06;62.18;101561.34;5109998;28;19971;-63
2022/08/10 07:01:39;;;;;;;;;;;;;;;18.20;62.14;101553.34;5109541;28;19931;-64
2022/08/10 07:04:45;;;;;;;;;;;;;;;18.37;61.48;101562.75;5109319;28;20010;-61
2022/08/10 07:07:49;;;;;;;;;;;;;;;18.52;61.36;101560.88;5108750;28;20392;-61
2022/08/10 07:10:53;;;;;;;;;;;;;;;18.66;60.28;101568.69;5108742;28;19922;-61
2022/08/10 07:13:58;;;;;;;;;;;;;;;18.80;59.62;101567.78;5107386;28;20429;-61
2022/08/10 07:17:01;;;;;;;;;;;;;;;18.95;58.81;101557.88;5109313;28;19922;-61
2022/08/10 07:20:07;;;;;;;;;;;;;;;19.19;55.88;101549.97;5109314;28;19960;-61
2022/08/10 07:23:12;;;;;;;;;;;;;;;19.37;54.90;101550.44;5109845;28;20448;-62
2022/08/10 07:26:16;;;;;;;;;;;;;;;19.48;53.85;101545.19;5127974;27;19964;-62
2022/08/10 07:29:26;;;;;;;;;;;;;;;19.66;53.29;101538.56;5129614;27;19999;-62
2022/08/10 07:32:32;;;;;;;;;;;;;;;19.77;52.88;101543.06;5129408;27;19964;-62
2022/08/10 07:35:36;;;;;;;;;;;;;;;19.96;52.37;101537.22;5129342;27;19909;-64
2022/08/10 07:38:41;;;;;;;;;;;;;;;20.08;52.41;101536.28;5107738;28;19958;-62
2022/08/10 07:41:45;;;;;;;;;;;;;;;20.18;51.61;101544.41;5107414;28;19919;-63
2022/08/10 07:44:51;;;;;;;;;;;;;;;20.33;51.17;101545.88;5106410;28;20545;-62
2022/08/10 07:47:57;;;;;;;;;;;;;;;20.50;50.47;101541.91;5108936;28;19962;-61
2022/08/10 07:51:01;;;;;;;;;;;;;;;20.59;50.33;101546.53;5108858;28;20381;-62
2022/08/10 07:54:07;;;;;;;;;;;;;;;20.70;49.65;101542.19;5109263;28;20004;-62
2022/08/10 07:57:16;;;;;;;;;;;;;;;20.75;49.72;101548.84;5108726;28;19973;-61
2022/08/10 08:00:20;;;;;;;;;;;;;;;20.84;48.58;101547.25;5108485;28;19918;-62
2022/08/10 08:03:25;;;;;;;;;;;;;;;20.81;49.52;101539.53;5107766;28;20350;-62
2022/08/10 08:06:31;;;;;;;;;;;;;;;20.85;49.45;101547.13;5108330;28;19934;-67
2022/08/10 08:09:36;;;;;;;;;;;;;;;21.07;48.88;101543.59;5108720;28;19981;-68
2022/08/10 08:12:40;;;;;;;;;;;;;;;21.16;48.12;101535.88;5095578;28;19919;-63
2022/08/10 08:15:44;;;;;;;;;;;;;;;21.30;48.44;101551.53;5109129;28;20351;-62
2022/08/10 08:18:48;;;;;;;;;;;;;;;21.51;47.21;101531.19;5109099;28;19926;-63
2022/08/10 08:21:52;;;;;;;;;;;;;;;21.50;46.27;101537.47;5111673;28;20007;-63
2022/08/10 08:24:56;;;;;;;;;;;;;;;21.48;46.72;101534.09;5120167;27;19918;-63
2022/08/10 08:28:00;;;;;;;;;;;;;;;21.58;47.70;101535.03;5132898;27;20345;-64
2022/08/10 08:31:04;;;;;;;;;;;;;;;21.72;46.96;101535.69;5133294;27;19965;-63
2022/08/10 08:34:08;;;;;;;;;;;;;;;21.87;46.10;101534.41;5132992;27;19918;-64
2022/08/10 08:37:14;;;;;;;;;;;;;;;21.85;45.46;101528.34;5113402;27;19965;-64
2022/08/10 08:40:26;;;;;;;;;;;;;;;21.95;45.73;101537.28;5112929;28;19972;-63
2022/08/10 08:43:35;;;;;;;;;;;;;;;22.31;45.24;101531.66;5111633;28;19923;-63
2022/08/10 08:46:42;;;;;;;;;;;;;;;22.38;43.59;101533.63;5112093;28;19961;-64
2022/08/10 08:49:45;;;;;;;;;;;;;;;22.43;44.71;101528.78;5092135;28;20016;-65
2022/08/10 08:52:54;;;;;;;;;;;;;;;22.58;44.16;101520.41;5091919;28;19919;-64
2022/08/10 08:56:00;;;;;;;;;;;;;;;22.71;43.44;101521.00;5091878;28;19921;-64
2022/08/10 08:59:21;;;;;;;;;;;;;;;22.81;43.94;101511.22;5094290;28;19935;-64
2022/08/10 09:02:39;;;;;;;;;;;;;;;22.65;45.04;101513.53;5112531;28;19965;-63
2022/08/10 09:06:01;;;;;;;;;;;;;;;22.92;42.88;101510.28;5111831;28;19923;-64
2022/08/10 09:09:04;;;;;;;;;;;;;;;23.03;42.45;101506.69;5112021;28;20008;-64
2022/08/10 09:12:16;;;;;;;;;;;;;;;23.12;42.42;101505.84;5111213;28;20378;-64
2022/08/10 09:15:55;;;;;;;;;;;;;;;23.12;42.46;101501.34;5111697;28;19923;-64
2022/08/10 09:19:02;;;;;;;;;;;;;;;23.18;42.25;101497.31;5070042;28;19927;-65
2022/08/10 09:22:08;;;;;;;;;;;;;;;23.44;41.36;101490.44;5111500;28;19918;-64
2022/08/10 09:25:14;;;;;;;;;;;;;;;23.58;40.90;101491.84;5121132;27;19984;-64
2022/08/10 09:28:30;;;;;;;;;;;;;;;23.64;40.97;101491.28;5131646;27;19975;-64
2022/08/10 09:31:45;;;;;;;;;;;;;;;23.69;41.17;101482.88;5077440;28;19927;-64
2022/08/10 09:35:00;;;;;;;;;;;;;;;23.57;41.22;101478.63;5095459;28;19919;-63
2022/08/10 09:38:22;;;;;;;;;;;;;;;23.63;41.12;101475.38;5111843;28;19923;-65
2022/08/10 09:41:45;;;;;;;;;;;;;;;24.07;40.47;101473.09;5110513;28;19919;-67
2022/08/10 09:44:50;;;;;;;;;;;;;;;23.92;40.05;101467.34;5111984;28;19962;-66
2022/08/10 09:48:13;;;;;;;;;;;;;;;23.89;39.68;101457.81;5111378;28;19922;-66
2022/08/10 09:51:37;;;;;;;;;;;;;;;24.19;38.89;101458.56;5111245;28;19930;-67
2022/08/10 09:54:56;;;;;;;;;;;;;;;24.20;39.58;101454.06;5111527;28;19919;-67
2022/08/10 09:58:11;;;;;;;;;;;;;;;24.33;38.85;101449.22;5111194;28;19923;-64
2022/08/10 10:01:26;;;;;;;;;;;;;;;24.54;38.43;101447.19;5111093;28;20068;-65
2022/08/10 10:05:05;;;;;;;;;;;;;;;24.40;38.42;101450.31;5110811;28;19919;-65
2022/08/10 10:08:11;;;;;;;;;;;;;;;24.51;37.96;101446.66;5069318;28;19971;-63
2022/08/10 10:11:13;;;;;;;;;;;;;;;24.66;37.02;101439.78;5110424;28;19960;-64
2022/08/10 10:14:16;;;;;;;;;;;;;;;24.54;37.14;101435.66;5111132;28;20579;-64
2022/08/10 10:17:25;;;;;;;;;;;;;;;24.47;36.91;101424.69;5110844;28;19968;-63
2022/08/10 10:20:35;;;;;;;;;;;;;;;24.36;36.58;101425.72;5111004;28;20611;-63
2022/08/10 10:23:41;;;;;;;;;;;;;;;24.35;36.16;101424.03;5110431;28;19938;-64
2022/08/10 10:26:47;;;;;;;;;;;;;;;24.75;34.38;101417.50;5110474;28;19941;-64
2022/08/10 10:29:59;;;;;;;;;;;;;;;24.94;35.23;101408.50;5110409;28;19914;-65
2022/08/10 10:33:11;;;;;;;;;;;;;;;25.40;33.43;101405.75;5110023;28;19923;-64
2022/08/10 10:36:16;;;;;;;;;;;;;;;25.22;33.69;101403.09;5089962;28;19962;-64
2022/08/10 10:39:24;;;;;;;;;;;;;;;25.20;34.66;101394.38;5090041;28;19926;-64
2022/08/10 10:42:37;;;;;;;;;;;;;;;25.54;33.23;101390.97;5089130;28;19923;-64
2022/08/10 10:45:58;;;;;;;;;;;;;;;25.56;33.48;101392.50;5078712;28;20569;-64
2022/08/10 10:49:04;;;;;;;;;;;;;;;25.53;33.95;101382.09;5110278;28;19968;-64
2022/08/10 10:52:10;;;;;;;;;;;;;;;25.60;33.54;101379.63;5110493;28;19938;-64
2022/08/10 10:55:24;;;;;;;;;;;;;;;25.43;34.23;101378.66;5110542;28;19927;-64
2022/08/10 10:58:42;;;;;;;;;;;;;;;25.65;34.35;101377.28;5109365;28;19968;-64
2022/08/10 11:01:54;;;;;;;;;;;;;;;25.74;32.98;101376.34;5109602;28;19961;-64
2022/08/10 11:05:11;;;;;;;;;;;;;;;26.36;32.15;101360.09;5108804;28;19984;-65
2022/08/10 11:08:18;;;;;;;;;;;;;;;25.97;32.04;101369.50;5109816;28;19938;-63
2022/08/10 11:11:28;;;;;;;;;;;;;;;25.95;33.25;101366.13;5108403;28;19918;-64
2022/08/10 11:14:51;;;;;;;;;;;;;;;26.17;32.68;101356.69;5108838;28;20486;-64
2022/08/10 11:18:04;;;;;;;;;;;;;;;26.11;33.13;101356.47;5108150;28;19922;-65
2022/08/10 11:21:23;;;;;;;;;;;;;;;26.23;33.24;101347.16;5107958;28;19919;-63
2022/08/10 11:25:11;;;;;;;;;;;;;;;26.37;31.85;101349.19;5108026;28;19927;-65
2022/08/10 11:28:34;;;;;;;;;;;;;;;26.53;31.50;101355.63;5107288;28;19919;-65
2022/08/10 11:31:42;;;;;;;;;;;;;;;26.49;31.49;101344.41;5108126;28;19918;-66
2022/08/10 11:34:45;;;;;;;;;;;;;;;26.40;31.74;101339.97;5105853;28;20324;-65
2022/08/10 11:37:48;;;;;;;;;;;;;;;26.35;31.48;101336.94;5107500;28;19923;-65
2022/08/10 11:41:10;;;;;;;;;;;;;;;26.13;31.95;101336.56;5107760;28;19919;-65
2022/08/10 11:44:26;;;;;;;;;;;;;;;26.19;31.01;101338.56;5115594;28;20393;-65
2022/08/10 11:47:34;;;;;;;;;;;;;;;26.40;31.24;101337.31;5088366;28;19961;-65
2022/08/10 11:50:42;;;;;;;;;;;;;;;26.72;29.98;101333.03;5099356;28;19918;-65
2022/08/10 11:53:59;;;;;;;;;;;;;;;26.54;30.93;101323.28;5109450;28;19917;-65
2022/08/10 11:57:05;;;;;;;;;;;;;;;26.41;31.12;101312.16;5113085;28;19986;-65
2022/08/10 12:00:09;;;;;;;;;;;;;;;26.48;30.61;101321.25;5113587;28;19984;-65
2022/08/10 12:03:13;;;;;;;;;;;;;;;26.62;30.88;101317.94;5112824;28;19964;-65
2022/08/10 12:06:18;;;;;;;;;;;;;;;26.84;29.64;101311.06;5113456;28;19919;-65
2022/08/10 12:09:22;;;;;;;;;;;;;;;27.12;29.47;101314.25;5112423;28;20341;-65
2022/08/10 12:12:28;;;;;;;;;;;;;;;27.08;29.34;101307.53;5122231;27;19936;-64
2022/08/10 12:15:39;;;;;;;;;;;;;;;26.89;29.60;101307.88;5134194;27;19934;-65
2022/08/10 12:18:53;;;;;;;;;;;;;;;26.81;29.10;101299.84;5133531;27;19958;-65
2022/08/10 12:22:04;;;;;;;;;;;;;;;27.13;29.38;101294.47;5133024;27;20010;-65
2022/08/10 12:25:10;;;;;;;;;;;;;;;27.57;27.12;101280.63;5133722;27;20006;-65
2022/08/10 12:28:16;;;;;;;;;;;;;;;27.62;27.49;101285.47;5133026;27;20525;-65
2022/08/10 12:31:25;;;;;;;;;;;;;;;27.61;27.36;101291.00;4757790;27;9999908;-65
2022/08/10 12:34:43;;;;;;;;;;;;;;;27.55;26.62;101279.94;5107798;28;19961;-66
2022/08/10 12:37:46;;;;;;;;;;;;;;;27.61;27.14;101281.09;5108018;28;19990;-65
2022/08/10 12:41:02;;;;;;;;;;;;;;;27.86;26.93;101276.50;5107612;28;19973;-65
2022/08/10 12:44:08;;;;;;;;;;;;;;;28.21;26.17;101266.22;5107307;28;19966;-65
2022/08/10 12:47:30;;;;;;;;;;;;;;;28.56;26.28;101264.84;5108059;28;20292;-66
2022/08/10 12:50:33;;;;;;;;;;;;;;;28.75;26.51;101263.50;5109983;28;19921;-65
2022/08/10 12:53:42;;;;;;;;;;;;;;;29.08;25.19;101258.66;5110215;28;20135;-65
2022/08/10 12:56:48;;;;;;;;;;;;;;;29.37;25.37;101252.47;5110764;28;20102;-65
2022/08/10 12:59:55;;;;;;;;;;;;;;;29.49;24.24;101239.38;5111089;28;19960;-65
2022/08/10 13:03:00;;;;;;;;;;;;;;;29.86;24.55;101251.03;5111830;28;20378;-65
2022/08/10 13:06:05;;;;;;;;;;;;;;;29.88;24.74;101249.84;5115322;27;20006;-65
2022/08/10 13:09:08;;;;;;;;;;;;;;;30.07;23.82;101237.59;5116880;27;19970;-66
2022/08/10 13:12:13;;;;;;;;;;;;;;;30.17;23.98;101239.97;5131769;27;19922;-63
2022/08/10 13:15:20;;;;;;;;;;;;;;;30.23;23.49;101238.41;5132423;27;20005;-63
2022/08/10 13:18:30;;;;;;;;;;;;;;;30.20;23.76;101231.53;5132638;27;20378;-65
2022/08/10 13:21:34;;;;;;;;;;;;;;;30.31;23.19;101228.34;5115414;27;19966;-62
2022/08/10 13:24:47;;;;;;;;;;;;;;;30.40;23.32;101220.09;5111800;28;19970;-65
2022/08/10 13:27:51;;;;;;;;;;;;;;;30.57;22.07;101205.31;5112270;28;19918;-66
2022/08/10 13:30:56;;;;;;;;;;;;;;;31.01;23.02;101206.88;5112134;28;19964;-64
2022/08/10 13:34:02;;;;;;;;;;;;;;;31.17;22.29;101200.34;5078300;28;19923;-64
2022/08/10 13:37:08;;;;;;;;;;;;;;;31.80;21.60;101194.81;5091011;28;19956;-64
2022/08/10 13:40:17;;;;;;;;;;;;;;;32.38;20.99;101195.13;5090778;28;20332;-64
2022/08/10 13:43:21;;;;;;;;;;;;;;;32.66;20.25;101184.13;5090902;28;20317;-64
2022/08/10 13:46:24;;;;;;;;;;;;;;;33.39;19.05;101175.00;5111281;28;19965;-65
2022/08/10 13:49:29;;;;;;;;;;;;;;;33.74;19.94;101178.19;5111327;28;19958;-63
2022/08/10 13:52:34;;;;;;;;;;;;;;;34.15;18.54;101171.50;5111356;28;19918;-64
2022/08/10 13:55:43;;;;;;;;;;;;;;;34.80;17.47;101169.25;5095036;28;19918;-64
2022/08/10 13:58:47;;;;;;;;;;;;;;;36.69;16.22;101160.75;5110718;28;20312;-63
2022/08/10 14:01:52;;;;;;;;;;;;;;;38.23;14.37;101158.31;5110815;28;19956;-65
2022/08/10 14:04:57;;;;;;;;;;;;;;;40.32;12.86;101155.38;5110002;28;19934;-65
2022/08/10 14:08:01;;;;;;;;;;;;;;;42.35;11.54;101150.81;5108499;28;19919;-66
2022/08/10 14:11:16;;;;;;;;;;;;;;;42.68;10.81;101143.84;5110839;28;20292;-66
2022/08/10 14:14:39;;;;;;;;;;;;;;;42.77;10.75;101141.38;5110166;28;19922;-65
2022/08/10 14:17:44;;;;;;;;;;;;;;;42.80;10.98;101148.25;5111047;28;19925;-65
2022/08/10 14:20:57;;;;;;;;;;;;;;;42.43;10.86;101141.16;5107613;28;19936;-64
2022/08/10 14:24:01;;;;;;;;;;;;;;;43.60;10.16;101135.16;5109500;28;19926;-65
2022/08/10 14:27:06;;;;;;;;;;;;;;;42.20;10.15;101137.88;5105977;28;19919;-65
2022/08/10 14:30:15;;;;;;;;;;;;;;;37.90;12.66;101121.72;5090258;28;19919;-65
2022/08/10 14:33:22;;;;;;;;;;;;;;;41.97;11.80;101122.00;5096822;28;19918;-64
2022/08/10 14:36:59;;;;;;;;;;;;;;;41.95;11.03;101121.44;5110382;28;19918;-66
2022/08/10 14:40:05;;;;;;;;;;;;;;;41.91;11.06;101125.84;5110663;28;19922;-65
2022/08/10 14:43:10;;;;;;;;;;;;;;;43.66;9.91;101119.44;5109967;28;19970;-66
2022/08/10 14:46:17;;;;;;;;;;;;;;;41.34;11.58;101122.97;5110353;28;19919;-66
2022/08/10 14:49:21;;;;;;;;;;;;;;;42.18;10.95;101109.03;5110052;28;19919;-66
2022/08/10 14:52:26;;;;;;;;;;;;;;;42.58;10.29;101110.88;5110489;28;19911;-65
2022/08/10 14:55:30;;;;;;;;;;;;;;;41.76;10.15;101110.97;5109520;28;19961;-65
2022/08/10 14:58:56;;;;;;;;;;;;;;;42.44;10.85;101099.66;5110160;28;19968;-66
2022/08/10 15:02:03;;;;;;;;;;;;;;;42.20;10.53;101096.66;5097317;28;19922;-66
2022/08/10 15:05:09;;;;;;;;;;;;;;;41.90;10.84;101094.81;5109326;28;20006;-66
2022/08/10 15:08:13;;;;;;;;;;;;;;;41.10;11.14;101108.09;5108757;28;19922;-66
2022/08/10 15:11:17;;;;;;;;;;;;;;;39.95;11.40;101106.88;5109631;28;19957;-66
2022/08/10 15:14:22;;;;;;;;;;;;;;;40.02;11.20;101097.63;5109772;28;19938;-68
2022/08/10 15:17:28;;;;;;;;;;;;;;;40.01;11.62;101104.16;5110265;28;20335;-66
2022/08/10 15:20:32;;;;;;;;;;;;;;;41.66;10.78;101102.72;5109312;28;19935;-66
2022/08/10 15:23:41;;;;;;;;;;;;;;;41.49;11.24;101096.69;5109907;28;19960;-67
2022/08/10 15:26:46;;;;;;;;;;;;;;;41.00;11.72;101094.31;5109549;28;19956;-67
2022/08/10 15:29:51;;;;;;;;;;;;;;;40.04;12.04;101095.44;5108776;28;20461;-67
2022/08/10 15:39:45;;;;;;;;;;;;;;;40.04;11.34;101079.00;5109354;28;19922;-66
2022/08/10 15:42:57;;;;;;;;;;;;;;;39.21;12.28;101071.94;5109109;28;19923;-66
2022/08/10 15:46:04;;;;;;;;;;;;;;;40.74;11.60;101071.47;5088407;28;20011;-66
2022/08/10 15:49:10;;;;;;;;;;;;;;;39.94;12.28;101066.06;5088862;28;19911;-67
2022/08/10 15:52:17;;;;;;;;;;;;;;;38.53;13.03;101068.66;5089045;28;20297;-66
2022/08/10 15:55:23;;;;;;;;;;;;;;;37.89;12.90;101065.47;5080419;28;19919;-66
2022/08/10 15:58:27;;;;;;;;;;;;;;;38.34;13.70;101068.09;5108924;28;19922;-66
2022/08/10 16:01:47;;;;;;;;;;;;;;;39.05;12.55;101057.28;5109318;28;19919;-66
2022/08/10 16:04:50;;;;;;;;;;;;;;;38.99;12.01;101061.03;5109269;28;19965;-66
2022/08/10 16:07:59;;;;;;;;;;;;;;;40.21;11.27;101052.31;5108407;28;19976;-66
2022/08/10 16:11:04;;;;;;;;;;;;;;;40.52;11.74;101044.22;5109236;28;19918;-67
2022/08/10 16:14:15;;;;;;;;;;;;;;;39.12;12.49;101053.50;5109385;28;20292;-66
2022/08/10 16:17:19;;;;;;;;;;;;;;;37.69;13.15;101061.34;5108907;28;19923;-66